sensor_id;sensor_type;location;lat;lon;timestamp;temperature;humidity
25616;DHT22;13482;48.234;13.006;2023-04-24T00:01:30;14.90;70.30
25616;DHT22;13482;48.234;13.006;2023-04-24T00:03:58;14.90;70.30
25616;DHT22;13482;48.234;13.006;2023-04-24T00:06:26;14.90;70.30
25616;DHT22;13482;48.234;13.006;2023-04-24T00:09:04;14.90;70.30
25616;DHT22;13482;48.234;13.006;2023-04-24T00:11:31;15.00;70.20
25616;DHT22;13482;48.234;13.006;2023-04-24T00:13:58;15.00;70.20
25616;DHT22;13482;48.234;13.006;2023-04-24T00:16:25;15.00;70.20
25616;DHT22;13482;48.234;13.006;2023-04-24T00:18:53;15.00;70.20
25616;DHT22;13482;48.234;13.006;2023-04-24T00:21:21;15.00;70.20
25616;DHT22;13482;48.234;13.006;2023-04-24T00:23:48;15.00;70.20
25616;DHT22;13482;48.234;13.006;2023-04-24T00:26:15;15.10;70.10
25616;DHT22;13482;48.234;13.006;2023-04-24T00:28:42;15.10;70.20
25616;DHT22;13482;48.234;13.006;2023-04-24T00:31:09;15.10;70.10
25616;DHT22;13482;48.234;13.006;2023-04-24T00:33:36;15.10;70.00
25616;DHT22;13482;48.234;13.006;2023-04-24T00:36:04;15.10;70.10
25616;DHT22;13482;48.234;13.006;2023-04-24T00:38:31;15.10;70.10
25616;DHT22;13482;48.234;13.006;2023-04-24T00:40:58;15.20;70.00
25616;DHT22;13482;48.234;13.006;2023-04-24T00:43:25;15.20;70.00
25616;DHT22;13482;48.234;13.006;2023-04-24T00:45:52;15.20;70.00
25616;DHT22;13482;48.234;13.006;2023-04-24T00:48:20;15.20;70.00
25616;DHT22;13482;48.234;13.006;2023-04-24T00:50:48;15.20;70.00
25616;DHT22;13482;48.234;13.006;2023-04-24T00:53:15;15.20;70.00
25616;DHT22;13482;48.234;13.006;2023-04-24T00:55:42;15.20;70.00
25616;DHT22;13482;48.234;13.006;2023-04-24T00:58:09;15.20;69.90
25616;DHT22;13482;48.234;13.006;2023-04-24T01:00:36;15.30;70.00
25616;DHT22;13482;48.234;13.006;2023-04-24T01:03:04;15.20;70.00
25616;DHT22;13482;48.234;13.006;2023-04-24T01:05:33;15.30;70.10
25616;DHT22;13482;48.234;13.006;2023-04-24T01:08:01;15.20;70.10
25616;DHT22;13482;48.234;13.006;2023-04-24T01:10:31;15.20;70.10
25616;DHT22;13482;48.234;13.006;2023-04-24T01:13:00;15.30;70.20
25616;DHT22;13482;48.234;13.006;2023-04-24T01:15:27;15.20;70.20
25616;DHT22;13482;48.234;13.006;2023-04-24T01:17:54;15.20;70.10
25616;DHT22;13482;48.234;13.006;2023-04-24T01:20:23;15.20;70.10
25616;DHT22;13482;48.234;13.006;2023-04-24T01:22:51;15.20;70.10
25616;DHT22;13482;48.234;13.006;2023-04-24T01:25:19;15.20;70.10
25616;DHT22;13482;48.234;13.006;2023-04-24T01:27:46;15.30;70.00
25616;DHT22;13482;48.234;13.006;2023-04-24T01:30:14;15.30;70.00
25616;DHT22;13482;48.234;13.006;2023-04-24T01:32:42;15.20;70.00
25616;DHT22;13482;48.234;13.006;2023-04-24T01:35:11;15.20;70.20
25616;DHT22;13482;48.234;13.006;2023-04-24T01:37:38;15.20;70.40
25616;DHT22;13482;48.234;13.006;2023-04-24T01:40:06;15.10;70.30
25616;DHT22;13482;48.234;13.006;2023-04-24T01:42:34;15.10;70.20
25616;DHT22;13482;48.234;13.006;2023-04-24T01:45:03;15.10;70.30
25616;DHT22;13482;48.234;13.006;2023-04-24T01:47:33;15.20;70.40
25616;DHT22;13482;48.234;13.006;2023-04-24T01:50:00;15.20;70.40
25616;DHT22;13482;48.234;13.006;2023-04-24T01:52:27;15.10;70.50
25616;DHT22;13482;48.234;13.006;2023-04-24T01:54:59;15.10;70.90
25616;DHT22;13482;48.234;13.006;2023-04-24T01:57:27;15.10;70.80
25616;DHT22;13482;48.234;13.006;2023-04-24T01:59:57;15.10;71.00
25616;DHT22;13482;48.234;13.006;2023-04-24T02:02:24;15.00;70.90
25616;DHT22;13482;48.234;13.006;2023-04-24T02:07:36;14.90;71.60
25616;DHT22;13482;48.234;13.006;2023-04-24T02:10:04;14.90;71.70
25616;DHT22;13482;48.234;13.006;2023-04-24T02:12:31;14.80;71.80
25616;DHT22;13482;48.234;13.006;2023-04-24T02:14:59;14.80;71.90
25616;DHT22;13482;48.234;13.006;2023-04-24T02:17:26;14.70;71.90
25616;DHT22;13482;48.234;13.006;2023-04-24T02:19:53;14.70;72.10
25616;DHT22;13482;48.234;13.006;2023-04-24T02:22:20;14.70;72.00
25616;DHT22;13482;48.234;13.006;2023-04-24T02:24:47;14.60;71.90
25616;DHT22;13482;48.234;13.006;2023-04-24T02:27:14;14.60;71.80
25616;DHT22;13482;48.234;13.006;2023-04-24T02:29:41;14.60;71.70
25616;DHT22;13482;48.234;13.006;2023-04-24T02:32:09;14.60;71.80
25616;DHT22;13482;48.234;13.006;2023-04-24T02:34:39;14.60;71.80
25616;DHT22;13482;48.234;13.006;2023-04-24T02:37:06;14.60;71.90
25616;DHT22;13482;48.234;13.006;2023-04-24T02:39:33;14.60;71.80
25616;DHT22;13482;48.234;13.006;2023-04-24T02:42:00;14.60;72.10
25616;DHT22;13482;48.234;13.006;2023-04-24T02:44:28;14.60;72.40
25616;DHT22;13482;48.234;13.006;2023-04-24T02:46:55;14.60;72.70
25616;DHT22;13482;48.234;13.006;2023-04-24T02:49:22;14.60;72.30
25616;DHT22;13482;48.234;13.006;2023-04-24T02:51:49;14.60;72.10
25616;DHT22;13482;48.234;13.006;2023-04-24T02:54:16;14.60;72.30
25616;DHT22;13482;48.234;13.006;2023-04-24T02:56:43;14.60;72.10
25616;DHT22;13482;48.234;13.006;2023-04-24T02:59:10;14.60;72.10
25616;DHT22;13482;48.234;13.006;2023-04-24T03:01:37;14.60;72.10
25616;DHT22;13482;48.234;13.006;2023-04-24T03:04:04;14.60;72.20
25616;DHT22;13482;48.234;13.006;2023-04-24T03:06:32;14.60;72.10
25616;DHT22;13482;48.234;13.006;2023-04-24T03:08:59;14.60;72.10
25616;DHT22;13482;48.234;13.006;2023-04-24T03:11:26;14.60;72.10
25616;DHT22;13482;48.234;13.006;2023-04-24T03:13:53;14.60;72.20
25616;DHT22;13482;48.234;13.006;2023-04-24T03:16:21;14.60;72.10
25616;DHT22;13482;48.234;13.006;2023-04-24T03:18:48;14.60;72.20
25616;DHT22;13482;48.234;13.006;2023-04-24T03:21:15;14.60;71.90
25616;DHT22;13482;48.234;13.006;2023-04-24T03:23:42;14.50;71.90
25616;DHT22;13482;48.234;13.006;2023-04-24T03:26:09;14.50;71.90
25616;DHT22;13482;48.234;13.006;2023-04-24T03:28:36;14.50;72.10
25616;DHT22;13482;48.234;13.006;2023-04-24T03:31:04;14.50;72.20
25616;DHT22;13482;48.234;13.006;2023-04-24T03:33:31;14.50;71.90
25616;DHT22;13482;48.234;13.006;2023-04-24T03:35:58;14.50;71.90
25616;DHT22;13482;48.234;13.006;2023-04-24T03:38:25;14.50;72.10
25616;DHT22;13482;48.234;13.006;2023-04-24T03:40:52;14.40;71.90
25616;DHT22;13482;48.234;13.006;2023-04-24T03:43:19;14.40;72.20
25616;DHT22;13482;48.234;13.006;2023-04-24T03:45:46;14.40;72.00
25616;DHT22;13482;48.234;13.006;2023-04-24T03:48:13;14.40;72.10
25616;DHT22;13482;48.234;13.006;2023-04-24T03:50:40;14.40;72.00
25616;DHT22;13482;48.234;13.006;2023-04-24T03:53:08;14.30;72.10
25616;DHT22;13482;48.234;13.006;2023-04-24T03:55:35;14.30;72.10
25616;DHT22;13482;48.234;13.006;2023-04-24T03:58:02;14.30;72.10
25616;DHT22;13482;48.234;13.006;2023-04-24T04:00:29;14.20;72.20
25616;DHT22;13482;48.234;13.006;2023-04-24T04:03:00;14.20;72.50
25616;DHT22;13482;48.234;13.006;2023-04-24T04:05:27;14.20;72.30
25616;DHT22;13482;48.234;13.006;2023-04-24T04:07:54;14.20;72.10
25616;DHT22;13482;48.234;13.006;2023-04-24T04:10:21;14.10;72.20
25616;DHT22;13482;48.234;13.006;2023-04-24T04:12:49;14.10;72.10
25616;DHT22;13482;48.234;13.006;2023-04-24T04:15:16;14.10;72.10
25616;DHT22;13482;48.234;13.006;2023-04-24T04:17:43;14.10;72.20
25616;DHT22;13482;48.234;13.006;2023-04-24T04:20:10;14.10;72.30
25616;DHT22;13482;48.234;13.006;2023-04-24T04:22:38;14.10;72.30
25616;DHT22;13482;48.234;13.006;2023-04-24T04:25:08;14.10;72.20
25616;DHT22;13482;48.234;13.006;2023-04-24T04:27:35;14.00;72.20
25616;DHT22;13482;48.234;13.006;2023-04-24T04:30:03;14.00;72.20
25616;DHT22;13482;48.234;13.006;2023-04-24T04:32:34;14.00;72.30
25616;DHT22;13482;48.234;13.006;2023-04-24T04:35:02;14.00;72.20
25616;DHT22;13482;48.234;13.006;2023-04-24T04:37:30;14.00;72.40
25616;DHT22;13482;48.234;13.006;2023-04-24T04:39:58;14.00;72.30
25616;DHT22;13482;48.234;13.006;2023-04-24T04:42:26;14.00;72.30
25616;DHT22;13482;48.234;13.006;2023-04-24T04:44:54;13.90;72.50
25616;DHT22;13482;48.234;13.006;2023-04-24T04:47:22;14.00;72.40
25616;DHT22;13482;48.234;13.006;2023-04-24T04:49:50;14.00;72.40
25616;DHT22;13482;48.234;13.006;2023-04-24T04:52:20;14.00;72.40
25616;DHT22;13482;48.234;13.006;2023-04-24T04:54:51;14.00;72.40
25616;DHT22;13482;48.234;13.006;2023-04-24T04:57:18;14.00;72.60
25616;DHT22;13482;48.234;13.006;2023-04-24T04:59:47;14.10;72.60
25616;DHT22;13482;48.234;13.006;2023-04-24T05:02:14;14.10;72.60
25616;DHT22;13482;48.234;13.006;2023-04-24T05:04:41;14.10;72.70
25616;DHT22;13482;48.234;13.006;2023-04-24T05:07:09;14.20;72.60
25616;DHT22;13482;48.234;13.006;2023-04-24T05:09:36;14.20;72.50
25616;DHT22;13482;48.234;13.006;2023-04-24T05:12:03;14.20;72.60
25616;DHT22;13482;48.234;13.006;2023-04-24T05:14:31;14.20;72.40
25616;DHT22;13482;48.234;13.006;2023-04-24T05:16:58;14.20;72.40
25616;DHT22;13482;48.234;13.006;2023-04-24T05:19:26;14.20;72.50
25616;DHT22;13482;48.234;13.006;2023-04-24T05:21:53;14.20;72.40
25616;DHT22;13482;48.234;13.006;2023-04-24T05:24:21;14.20;72.40
25616;DHT22;13482;48.234;13.006;2023-04-24T05:26:48;14.20;72.50
25616;DHT22;13482;48.234;13.006;2023-04-24T05:29:15;14.20;72.50
25616;DHT22;13482;48.234;13.006;2023-04-24T05:31:42;14.20;72.40
25616;DHT22;13482;48.234;13.006;2023-04-24T05:34:09;14.20;72.60
25616;DHT22;13482;48.234;13.006;2023-04-24T05:36:36;14.20;72.50
25616;DHT22;13482;48.234;13.006;2023-04-24T05:39:04;14.20;72.50
25616;DHT22;13482;48.234;13.006;2023-04-24T05:41:34;14.20;72.40
25616;DHT22;13482;48.234;13.006;2023-04-24T05:44:01;14.20;72.40
25616;DHT22;13482;48.234;13.006;2023-04-24T05:46:28;14.20;72.60
25616;DHT22;13482;48.234;13.006;2023-04-24T05:48:55;14.20;72.50
25616;DHT22;13482;48.234;13.006;2023-04-24T05:51:23;14.20;72.50
25616;DHT22;13482;48.234;13.006;2023-04-24T05:53:50;14.20;72.60
25616;DHT22;13482;48.234;13.006;2023-04-24T05:56:17;14.20;72.60
25616;DHT22;13482;48.234;13.006;2023-04-24T05:58:45;14.20;72.70
25616;DHT22;13482;48.234;13.006;2023-04-24T06:01:13;14.20;72.70
25616;DHT22;13482;48.234;13.006;2023-04-24T06:03:43;14.20;72.60
25616;DHT22;13482;48.234;13.006;2023-04-24T06:06:11;14.20;72.90
25616;DHT22;13482;48.234;13.006;2023-04-24T06:08:38;14.20;72.70
25616;DHT22;13482;48.234;13.006;2023-04-24T06:11:05;14.20;72.70
25616;DHT22;13482;48.234;13.006;2023-04-24T06:13:32;14.20;73.10
25616;DHT22;13482;48.234;13.006;2023-04-24T06:15:59;14.10;72.80
25616;DHT22;13482;48.234;13.006;2023-04-24T06:18:26;14.20;72.80
25616;DHT22;13482;48.234;13.006;2023-04-24T06:20:54;14.20;72.90
25616;DHT22;13482;48.234;13.006;2023-04-24T06:23:22;14.10;72.80
25616;DHT22;13482;48.234;13.006;2023-04-24T06:25:49;14.20;72.80
25616;DHT22;13482;48.234;13.006;2023-04-24T06:28:16;14.20;72.80
25616;DHT22;13482;48.234;13.006;2023-04-24T06:30:44;14.20;72.80
25616;DHT22;13482;48.234;13.006;2023-04-24T06:33:11;14.20;72.90
25616;DHT22;13482;48.234;13.006;2023-04-24T06:35:46;14.20;73.10
25616;DHT22;13482;48.234;13.006;2023-04-24T06:38:13;14.20;73.00
25616;DHT22;13482;48.234;13.006;2023-04-24T06:40:41;14.20;73.10
25616;DHT22;13482;48.234;13.006;2023-04-24T06:43:10;14.20;73.10
25616;DHT22;13482;48.234;13.006;2023-04-24T06:45:38;14.20;73.30
25616;DHT22;13482;48.234;13.006;2023-04-24T06:48:06;14.20;73.40
25616;DHT22;13482;48.234;13.006;2023-04-24T06:50:34;14.30;73.50
25616;DHT22;13482;48.234;13.006;2023-04-24T06:53:01;14.30;73.80
25616;DHT22;13482;48.234;13.006;2023-04-24T06:55:28;14.30;73.60
25616;DHT22;13482;48.234;13.006;2023-04-24T06:57:55;14.40;73.70
25616;DHT22;13482;48.234;13.006;2023-04-24T07:00:22;14.40;73.70
25616;DHT22;13482;48.234;13.006;2023-04-24T07:02:51;14.40;73.60
25616;DHT22;13482;48.234;13.006;2023-04-24T07:05:18;14.50;73.50
25616;DHT22;13482;48.234;13.006;2023-04-24T07:07:50;14.50;73.50
25616;DHT22;13482;48.234;13.006;2023-04-24T07:10:17;14.60;73.70
25616;DHT22;13482;48.234;13.006;2023-04-24T07:12:45;14.60;73.60
25616;DHT22;13482;48.234;13.006;2023-04-24T07:15:13;14.60;73.60
25616;DHT22;13482;48.234;13.006;2023-04-24T07:17:40;14.70;73.60
25616;DHT22;13482;48.234;13.006;2023-04-24T07:20:10;14.70;73.70
25616;DHT22;13482;48.234;13.006;2023-04-24T07:22:38;14.80;73.70
25616;DHT22;13482;48.234;13.006;2023-04-24T07:25:06;14.80;73.70
25616;DHT22;13482;48.234;13.006;2023-04-24T07:27:34;14.90;73.90
25616;DHT22;13482;48.234;13.006;2023-04-24T07:30:03;15.00;73.90
25616;DHT22;13482;48.234;13.006;2023-04-24T07:32:31;15.00;74.20
25616;DHT22;13482;48.234;13.006;2023-04-24T07:34:58;15.10;74.30
25616;DHT22;13482;48.234;13.006;2023-04-24T07:37:26;15.20;74.10
25616;DHT22;13482;48.234;13.006;2023-04-24T07:39:55;15.30;74.00
25616;DHT22;13482;48.234;13.006;2023-04-24T07:42:22;15.40;73.70
25616;DHT22;13482;48.234;13.006;2023-04-24T07:44:49;15.50;73.50
25616;DHT22;13482;48.234;13.006;2023-04-24T07:47:17;15.50;73.30
25616;DHT22;13482;48.234;13.006;2023-04-24T07:49:44;15.60;73.10
25616;DHT22;13482;48.234;13.006;2023-04-24T07:52:11;15.60;73.00
25616;DHT22;13482;48.234;13.006;2023-04-24T07:54:38;15.60;72.70
25616;DHT22;13482;48.234;13.006;2023-04-24T07:57:06;15.70;72.60
25616;DHT22;13482;48.234;13.006;2023-04-24T07:59:34;15.70;72.50
25616;DHT22;13482;48.234;13.006;2023-04-24T08:02:02;15.70;72.50
25616;DHT22;13482;48.234;13.006;2023-04-24T08:04:29;15.70;72.50
25616;DHT22;13482;48.234;13.006;2023-04-24T08:06:56;15.60;72.40
25616;DHT22;13482;48.234;13.006;2023-04-24T08:09:23;15.60;72.30
25616;DHT22;13482;48.234;13.006;2023-04-24T08:11:53;15.60;72.30
25616;DHT22;13482;48.234;13.006;2023-04-24T08:14:20;15.60;72.30
25616;DHT22;13482;48.234;13.006;2023-04-24T08:16:52;15.60;72.30
25616;DHT22;13482;48.234;13.006;2023-04-24T08:19:21;15.60;72.40
25616;DHT22;13482;48.234;13.006;2023-04-24T08:21:48;15.60;72.50
25616;DHT22;13482;48.234;13.006;2023-04-24T08:24:15;15.60;72.60
25616;DHT22;13482;48.234;13.006;2023-04-24T08:26:42;15.60;72.60
25616;DHT22;13482;48.234;13.006;2023-04-24T08:29:10;15.60;72.80
25616;DHT22;13482;48.234;13.006;2023-04-24T08:31:37;15.70;73.00
25616;DHT22;13482;48.234;13.006;2023-04-24T08:34:04;15.80;73.10
25616;DHT22;13482;48.234;13.006;2023-04-24T08:36:32;15.90;73.10
25616;DHT22;13482;48.234;13.006;2023-04-24T08:39:13;16.00;73.00
25616;DHT22;13482;48.234;13.006;2023-04-24T08:41:42;16.10;72.80
25616;DHT22;13482;48.234;13.006;2023-04-24T08:44:10;16.20;72.70
25616;DHT22;13482;48.234;13.006;2023-04-24T08:46:37;16.30;72.50
25616;DHT22;13482;48.234;13.006;2023-04-24T08:49:05;16.30;71.90
25616;DHT22;13482;48.234;13.006;2023-04-24T08:51:32;16.30;71.80
25616;DHT22;13482;48.234;13.006;2023-04-24T08:54:00;16.30;71.70
25616;DHT22;13482;48.234;13.006;2023-04-24T08:56:28;16.40;71.70
25616;DHT22;13482;48.234;13.006;2023-04-24T08:58:57;16.40;71.70
25616;DHT22;13482;48.234;13.006;2023-04-24T09:01:25;16.40;71.90
25616;DHT22;13482;48.234;13.006;2023-04-24T09:03:54;16.40;71.90
25616;DHT22;13482;48.234;13.006;2023-04-24T09:06:23;16.50;71.80
25616;DHT22;13482;48.234;13.006;2023-04-24T09:08:53;16.50;71.40
25616;DHT22;13482;48.234;13.006;2023-04-24T09:11:24;16.50;71.10
25616;DHT22;13482;48.234;13.006;2023-04-24T09:13:53;16.40;70.90
25616;DHT22;13482;48.234;13.006;2023-04-24T09:16:21;16.40;71.20
25616;DHT22;13482;48.234;13.006;2023-04-24T09:18:51;16.40;71.20
25616;DHT22;13482;48.234;13.006;2023-04-24T09:21:21;16.50;71.00
25616;DHT22;13482;48.234;13.006;2023-04-24T09:24:04;16.50;70.90
25616;DHT22;13482;48.234;13.006;2023-04-24T09:26:36;16.50;70.60
25616;DHT22;13482;48.234;13.006;2023-04-24T09:29:04;16.50;70.60
25616;DHT22;13482;48.234;13.006;2023-04-24T09:31:31;16.40;70.50
25616;DHT22;13482;48.234;13.006;2023-04-24T09:34:01;16.40;70.50
25616;DHT22;13482;48.234;13.006;2023-04-24T09:36:39;16.40;70.50
25616;DHT22;13482;48.234;13.006;2023-04-24T09:39:09;16.40;70.70
25616;DHT22;13482;48.234;13.006;2023-04-24T09:44:27;16.30;70.90
25616;DHT22;13482;48.234;13.006;2023-04-24T09:46:55;16.30;71.00
25616;DHT22;13482;48.234;13.006;2023-04-24T09:49:28;16.40;71.20
25616;DHT22;13482;48.234;13.006;2023-04-24T09:52:08;16.40;71.40
25616;DHT22;13482;48.234;13.006;2023-04-24T09:54:37;16.50;71.30
25616;DHT22;13482;48.234;13.006;2023-04-24T09:57:07;16.60;71.20
25616;DHT22;13482;48.234;13.006;2023-04-24T09:59:42;16.70;71.30
25616;DHT22;13482;48.234;13.006;2023-04-24T10:02:20;16.80;71.60
25616;DHT22;13482;48.234;13.006;2023-04-24T10:04:56;17.00;71.30
25616;DHT22;13482;48.234;13.006;2023-04-24T10:07:26;17.10;70.80
25616;DHT22;13482;48.234;13.006;2023-04-24T10:09:54;17.10;70.40
25616;DHT22;13482;48.234;13.006;2023-04-24T10:12:21;17.20;70.20
25616;DHT22;13482;48.234;13.006;2023-04-24T10:14:50;17.20;70.00
25616;DHT22;13482;48.234;13.006;2023-04-24T10:17:17;17.20;70.10
25616;DHT22;13482;48.234;13.006;2023-04-24T10:19:47;17.30;69.90
25616;DHT22;13482;48.234;13.006;2023-04-24T10:22:15;17.30;69.90
25616;DHT22;13482;48.234;13.006;2023-04-24T10:24:44;17.40;69.50
25616;DHT22;13482;48.234;13.006;2023-04-24T10:27:13;17.40;68.70
25616;DHT22;13482;48.234;13.006;2023-04-24T10:29:43;17.30;68.90
25616;DHT22;13482;48.234;13.006;2023-04-24T10:32:11;17.30;69.00
25616;DHT22;13482;48.234;13.006;2023-04-24T10:34:38;17.20;68.70
25616;DHT22;13482;48.234;13.006;2023-04-24T10:37:05;17.10;68.90
25616;DHT22;13482;48.234;13.006;2023-04-24T10:39:33;17.10;68.50
25616;DHT22;13482;48.234;13.006;2023-04-24T10:42:00;17.00;68.10
25616;DHT22;13482;48.234;13.006;2023-04-24T10:44:36;16.90;67.70
25616;DHT22;13482;48.234;13.006;2023-04-24T10:47:03;16.80;65.50
25616;DHT22;13482;48.234;13.006;2023-04-24T10:49:31;16.60;66.10
25616;DHT22;13482;48.234;13.006;2023-04-24T10:52:03;16.50;65.80
25616;DHT22;13482;48.234;13.006;2023-04-24T10:54:42;16.40;65.80
25616;DHT22;13482;48.234;13.006;2023-04-24T11:00:09;16.10;66.30
25616;DHT22;13482;48.234;13.006;2023-04-24T11:02:40;15.90;67.00
25616;DHT22;13482;48.234;13.006;2023-04-24T11:05:16;15.80;67.40
25616;DHT22;13482;48.234;13.006;2023-04-24T11:10:44;15.70;68.10
25616;DHT22;13482;48.234;13.006;2023-04-24T11:13:21;15.70;68.20
25616;DHT22;13482;48.234;13.006;2023-04-24T11:16:14;15.60;68.40
25616;DHT22;13482;48.234;13.006;2023-04-24T11:18:51;15.60;68.50
25616;DHT22;13482;48.234;13.006;2023-04-24T11:21:22;15.60;68.90
25616;DHT22;13482;48.234;13.006;2023-04-24T11:23:49;15.70;69.30
25616;DHT22;13482;48.234;13.006;2023-04-24T11:26:19;15.70;69.50
25616;DHT22;13482;48.234;13.006;2023-04-24T11:28:50;15.80;69.70
25616;DHT22;13482;48.234;13.006;2023-04-24T11:31:37;15.90;70.10
25616;DHT22;13482;48.234;13.006;2023-04-24T11:34:10;16.20;71.10
25616;DHT22;13482;48.234;13.006;2023-04-24T11:36:43;16.40;70.90
25616;DHT22;13482;48.234;13.006;2023-04-24T11:39:11;16.60;70.70
25616;DHT22;13482;48.234;13.006;2023-04-24T11:41:38;16.80;70.40
25616;DHT22;13482;48.234;13.006;2023-04-24T11:44:07;17.00;69.80
25616;DHT22;13482;48.234;13.006;2023-04-24T11:46:35;17.10;69.10
25616;DHT22;13482;48.234;13.006;2023-04-24T11:49:04;17.20;69.30
25616;DHT22;13482;48.234;13.006;2023-04-24T11:51:32;17.40;68.60
25616;DHT22;13482;48.234;13.006;2023-04-24T11:54:13;17.50;67.80
25616;DHT22;13482;48.234;13.006;2023-04-24T11:56:46;17.60;66.50
25616;DHT22;13482;48.234;13.006;2023-04-24T11:59:14;17.60;66.10
25616;DHT22;13482;48.234;13.006;2023-04-24T12:01:48;17.60;65.80
25616;DHT22;13482;48.234;13.006;2023-04-24T12:04:17;17.50;65.60
25616;DHT22;13482;48.234;13.006;2023-04-24T12:07:02;17.50;65.90
25616;DHT22;13482;48.234;13.006;2023-04-24T12:09:44;17.60;64.70
25616;DHT22;13482;48.234;13.006;2023-04-24T12:12:15;17.60;65.30
25616;DHT22;13482;48.234;13.006;2023-04-24T12:14:48;17.50;65.70
25616;DHT22;13482;48.234;13.006;2023-04-24T12:17:30;17.50;65.70
25616;DHT22;13482;48.234;13.006;2023-04-24T12:22:28;17.60;65.60
25616;DHT22;13482;48.234;13.006;2023-04-24T12:25:10;17.60;65.00
25616;DHT22;13482;48.234;13.006;2023-04-24T12:27:38;17.60;65.00
25616;DHT22;13482;48.234;13.006;2023-04-24T12:30:09;17.70;64.20
25616;DHT22;13482;48.234;13.006;2023-04-24T12:32:42;17.70;63.40
25616;DHT22;13482;48.234;13.006;2023-04-24T12:35:10;17.80;62.60
25616;DHT22;13482;48.234;13.006;2023-04-24T12:37:37;17.80;62.30
25616;DHT22;13482;48.234;13.006;2023-04-24T12:40:08;17.80;61.80
25616;DHT22;13482;48.234;13.006;2023-04-24T12:42:45;17.80;62.20
25616;DHT22;13482;48.234;13.006;2023-04-24T12:45:14;17.90;62.30
25616;DHT22;13482;48.234;13.006;2023-04-24T12:47:43;17.90;62.30
25616;DHT22;13482;48.234;13.006;2023-04-24T12:50:13;17.80;61.50
25616;DHT22;13482;48.234;13.006;2023-04-24T12:52:43;17.80;61.10
25616;DHT22;13482;48.234;13.006;2023-04-24T12:55:11;17.80;61.30
25616;DHT22;13482;48.234;13.006;2023-04-24T12:57:39;17.70;61.50
25616;DHT22;13482;48.234;13.006;2023-04-24T13:00:08;17.60;61.30
25616;DHT22;13482;48.234;13.006;2023-04-24T13:02:36;17.50;61.80
25616;DHT22;13482;48.234;13.006;2023-04-24T13:05:04;17.40;62.10
25616;DHT22;13482;48.234;13.006;2023-04-24T13:07:31;17.20;62.50
25616;DHT22;13482;48.234;13.006;2023-04-24T13:09:58;16.90;62.80
25616;DHT22;13482;48.234;13.006;2023-04-24T13:12:26;16.70;63.40
25616;DHT22;13482;48.234;13.006;2023-04-24T13:14:53;16.40;63.80
25616;DHT22;13482;48.234;13.006;2023-04-24T13:17:21;16.20;64.30
25616;DHT22;13482;48.234;13.006;2023-04-24T13:19:50;16.00;64.90
25616;DHT22;13482;48.234;13.006;2023-04-24T13:22:18;15.90;65.40
25616;DHT22;13482;48.234;13.006;2023-04-24T13:24:45;15.80;65.80
25616;DHT22;13482;48.234;13.006;2023-04-24T13:27:15;15.80;65.90
25616;DHT22;13482;48.234;13.006;2023-04-24T13:29:43;15.80;66.20
25616;DHT22;13482;48.234;13.006;2023-04-24T13:32:11;15.80;65.80
25616;DHT22;13482;48.234;13.006;2023-04-24T13:34:38;15.90;66.00
25616;DHT22;13482;48.234;13.006;2023-04-24T13:37:05;15.90;66.30
25616;DHT22;13482;48.234;13.006;2023-04-24T13:39:34;16.00;66.30
25616;DHT22;13482;48.234;13.006;2023-04-24T13:42:02;16.00;65.90
25616;DHT22;13482;48.234;13.006;2023-04-24T13:44:31;16.10;66.10
25616;DHT22;13482;48.234;13.006;2023-04-24T13:46:58;16.20;66.20
25616;DHT22;13482;48.234;13.006;2023-04-24T13:49:26;16.30;65.90
25616;DHT22;13482;48.234;13.006;2023-04-24T13:51:54;16.40;66.00
25616;DHT22;13482;48.234;13.006;2023-04-24T13:54:22;16.50;66.10
25616;DHT22;13482;48.234;13.006;2023-04-24T13:56:53;16.60;66.20
25616;DHT22;13482;48.234;13.006;2023-04-24T13:59:23;16.80;65.90
25616;DHT22;13482;48.234;13.006;2023-04-24T14:01:51;16.90;65.40
25616;DHT22;13482;48.234;13.006;2023-04-24T14:04:18;17.00;64.70
25616;DHT22;13482;48.234;13.006;2023-04-24T14:06:45;17.10;64.30
25616;DHT22;13482;48.234;13.006;2023-04-24T14:09:12;17.20;64.40
25616;DHT22;13482;48.234;13.006;2023-04-24T14:11:40;17.30;64.30
25616;DHT22;13482;48.234;13.006;2023-04-24T14:14:07;17.40;64.20
25616;DHT22;13482;48.234;13.006;2023-04-24T14:16:35;17.40;63.80
25616;DHT22;13482;48.234;13.006;2023-04-24T14:19:02;17.50;64.10
25616;DHT22;13482;48.234;13.006;2023-04-24T14:21:29;17.60;63.60
25616;DHT22;13482;48.234;13.006;2023-04-24T14:23:57;17.60;62.60
25616;DHT22;13482;48.234;13.006;2023-04-24T14:26:24;17.70;62.50
25616;DHT22;13482;48.234;13.006;2023-04-24T14:28:51;17.70;62.60
25616;DHT22;13482;48.234;13.006;2023-04-24T14:31:29;17.70;62.50
25616;DHT22;13482;48.234;13.006;2023-04-24T14:33:56;17.70;62.40
25616;DHT22;13482;48.234;13.006;2023-04-24T14:36:24;17.70;62.20
25616;DHT22;13482;48.234;13.006;2023-04-24T14:38:51;17.60;62.30
25616;DHT22;13482;48.234;13.006;2023-04-24T14:41:18;17.60;62.70
25616;DHT22;13482;48.234;13.006;2023-04-24T14:43:45;17.60;62.80
25616;DHT22;13482;48.234;13.006;2023-04-24T14:46:13;17.60;63.10
25616;DHT22;13482;48.234;13.006;2023-04-24T14:48:40;17.60;62.80
25616;DHT22;13482;48.234;13.006;2023-04-24T14:51:07;17.60;62.80
25616;DHT22;13482;48.234;13.006;2023-04-24T14:53:34;17.60;62.80
25616;DHT22;13482;48.234;13.006;2023-04-24T14:56:02;17.60;62.70
25616;DHT22;13482;48.234;13.006;2023-04-24T14:58:29;17.60;62.50
25616;DHT22;13482;48.234;13.006;2023-04-24T15:00:56;17.60;62.60
25616;DHT22;13482;48.234;13.006;2023-04-24T15:03:24;17.60;62.70
25616;DHT22;13482;48.234;13.006;2023-04-24T15:05:53;17.50;62.70
25616;DHT22;13482;48.234;13.006;2023-04-24T15:08:20;17.40;62.70
25616;DHT22;13482;48.234;13.006;2023-04-24T15:10:48;17.40;62.90
25616;DHT22;13482;48.234;13.006;2023-04-24T15:13:15;17.30;63.10
25616;DHT22;13482;48.234;13.006;2023-04-24T15:15:42;17.20;63.10
25616;DHT22;13482;48.234;13.006;2023-04-24T15:18:10;17.10;63.40
25616;DHT22;13482;48.234;13.006;2023-04-24T15:20:38;17.00;63.60
25616;DHT22;13482;48.234;13.006;2023-04-24T15:25:35;16.90;64.00
25616;DHT22;13482;48.234;13.006;2023-04-24T15:28:03;16.90;64.10
25616;DHT22;13482;48.234;13.006;2023-04-24T15:30:31;16.90;64.20
25616;DHT22;13482;48.234;13.006;2023-04-24T15:33:00;16.80;64.30
25616;DHT22;13482;48.234;13.006;2023-04-24T15:35:28;16.80;64.40
25616;DHT22;13482;48.234;13.006;2023-04-24T15:37:56;16.80;64.60
25616;DHT22;13482;48.234;13.006;2023-04-24T15:40:23;16.80;64.70